Time;durP1;ratioP1;P1;durP2;ratioP2;P2;SDS_P1;SDS_P2;PMS_P1;PMS_P2;Temp;Humidity;BMP_temperature;BMP_pressure;BME280_temperature;BME280_humidity;BME280_pressure;Samples;Min_cycle;Max_cycle;Signal;HPM_P1;HPM_P2
2021/03/11 00:02:10;;;;;;;;;;;;;;;17.39;67.14;101216.06;4996408;28;1410;-61
2021/03/11 00:04:36;;;;;;;;;;;;;;;17.37;66.27;101218.00;5006325;28;809;-60
2021/03/11 00:07:01;;;;;;;;;;;;;;;17.37;67.14;101225.16;5010578;28;1514;-60
2021/03/11 00:09:27;;;;;;;;;;;;;;;17.30;66.36;101219.41;4993204;28;1967;-60
2021/03/11 00:11:52;;;;;;;;;;;;;;;17.30;67.38;101219.41;5001438;28;1371;-60
2021/03/11 00:14:17;;;;;;;;;;;;;;;17.26;67.13;101208.09;5003484;28;1614;-60
2021/03/11 00:16:43;;;;;;;;;;;;;;;17.24;67.71;101211.84;5003430;28;1556;-61
2021/03/11 00:19:08;;;;;;;;;;;;;;;17.25;66.47;101211.75;5003367;28;861;-60
2021/03/11 00:21:34;;;;;;;;;;;;;;;17.26;66.47;101209.91;5010487;28;1600;-60
2021/03/11 00:23:59;;;;;;;;;;;;;;;17.26;67.20;101216.13;5003068;28;1360;-61
2021/03/11 00:26:24;;;;;;;;;;;;;;;17.24;66.55;101220.72;5002774;28;1364;-60
2021/03/11 00:28:50;;;;;;;;;;;;;;;17.27;66.83;101233.88;4999393;28;1957;-60
2021/03/11 00:31:15;;;;;;;;;;;;;;;17.25;66.52;101232.28;5000820;28;1805;-60
2021/03/11 00:33:40;;;;;;;;;;;;;;;17.22;66.85;101217.31;4997505;28;1538;-60
2021/03/11 00:36:06;;;;;;;;;;;;;;;17.18;66.37;101223.00;5011992;28;1724;-60
2021/03/11 00:38:31;;;;;;;;;;;;;;;17.15;66.57;101226.75;5003838;28;818;-60
2021/03/11 00:40:57;;;;;;;;;;;;;;;17.15;67.36;101223.22;5001740;28;1778;-61
2021/03/11 00:43:22;;;;;;;;;;;;;;;17.12;67.27;101215.44;5001974;28;1618;-60
2021/03/11 00:45:49;;;;;;;;;;;;;;;17.08;67.17;101218.31;5003578;28;1623;-60
2021/03/11 00:48:15;;;;;;;;;;;;;;;17.10;67.33;101211.03;4998713;28;1886;-61
2021/03/11 00:50:40;;;;;;;;;;;;;;;17.08;67.35;101210.31;5010397;28;869;-60
2021/03/11 00:53:05;;;;;;;;;;;;;;;17.09;66.37;101221.88;4984438;28;1754;-60
2021/03/11 00:55:31;;;;;;;;;;;;;;;17.09;67.13;101217.38;4994951;28;1648;-60
2021/03/11 00:57:56;;;;;;;;;;;;;;;17.05;67.45;101215.88;5003413;28;1544;-60
2021/03/11 01:00:22;;;;;;;;;;;;;;;17.06;67.03;101222.06;5003858;28;1540;-61
2021/03/11 01:02:48;;;;;;;;;;;;;;;17.05;67.10;101215.88;5003546;28;1552;-60
2021/03/11 01:05:15;;;;;;;;;;;;;;;17.04;66.80;101214.16;5006948;28;748;-60
2021/03/11 01:07:41;;;;;;;;;;;;;;;17.03;67.39;101227.63;5004592;28;1953;-60
2021/03/11 01:10:07;;;;;;;;;;;;;;;17.01;67.35;101225.09;5003352;28;1417;-61
2021/03/11 01:12:32;;;;;;;;;;;;;;;17.02;67.12;101237.47;5003193;28;1626;-61
2021/03/11 01:14:58;;;;;;;;;;;;;;;17.03;67.06;101241.88;4994707;28;1366;-60
2021/03/11 01:17:23;;;;;;;;;;;;;;;17.04;66.85;101232.88;5001229;28;1552;-60
2021/03/11 01:19:48;;;;;;;;;;;;;;;17.03;67.16;101233.84;5005611;28;834;-61
2021/03/11 01:22:14;;;;;;;;;;;;;;;17.01;66.97;101235.78;5008431;28;1265;-61
2021/03/11 01:24:39;;;;;;;;;;;;;;;17.00;66.48;101239.41;5003897;28;1603;-61
2021/03/11 01:27:05;;;;;;;;;;;;;;;17.01;65.81;101225.09;5004848;28;1672;-60
2021/03/11 01:29:31;;;;;;;;;;;;;;;17.02;66.88;101233.94;5004924;28;1914;-60
2021/03/11 01:31:56;;;;;;;;;;;;;;;17.01;66.18;101227.75;5006934;28;1403;-61
2021/03/11 01:34:21;;;;;;;;;;;;;;;16.99;65.89;101229.69;5007522;28;794;-60
2021/03/11 01:36:47;;;;;;;;;;;;;;;16.99;66.95;101219.00;5013375;28;1713;-60
2021/03/11 01:39:13;;;;;;;;;;;;;;;17.01;65.47;101227.75;5004702;28;1532;-60
2021/03/11 01:41:38;;;;;;;;;;;;;;;16.96;66.64;101213.88;5001140;28;1357;-60
2021/03/11 01:44:04;;;;;;;;;;;;;;;17.01;65.41;101241.13;4998404;28;1138;-61
2021/03/11 01:46:29;;;;;;;;;;;;;;;16.97;65.77;101218.28;5006106;28;846;-60
2021/03/11 01:48:54;;;;;;;;;;;;;;;16.96;66.69;101226.38;5004708;28;1957;-60
2021/03/11 01:51:21;;;;;;;;;;;;;;;16.98;66.19;101224.47;5014474;28;1769;-60
2021/03/11 01:53:47;;;;;;;;;;;;;;;16.95;65.57;101236.22;5005533;28;1620;-60
2021/03/11 01:56:13;;;;;;;;;;;;;;;16.94;66.73;101229.16;5006747;28;824;-61
2021/03/11 01:58:39;;;;;;;;;;;;;;;16.89;66.14;101209.94;5004202;28;1683;-60
2021/03/11 02:01:04;;;;;;;;;;;;;;;16.91;65.57;101229.41;5004327;28;1671;-60
2021/03/11 02:03:30;;;;;;;;;;;;;;;16.88;66.32;101221.59;5006027;28;1368;-60
2021/03/11 02:05:55;;;;;;;;;;;;;;;16.88;66.68;101229.59;5015377;28;839;-60
2021/03/11 02:08:21;;;;;;;;;;;;;;;16.84;65.90;101220.09;4999901;28;1959;-60
2021/03/11 02:10:46;;;;;;;;;;;;;;;16.86;65.50;101250.22;5004671;28;1266;-60
2021/03/11 02:13:24;;;;;;;;;;;;;;;16.84;66.83;101242.31;4997468;28;1783;-60
2021/03/11 02:16:03;;;;;;;;;;;;;;;16.86;66.40;101244.88;5005840;28;1233;-60
2021/03/11 02:18:34;;;;;;;;;;;;;;;16.85;65.30;101251.19;5006110;28;1500;-60
2021/03/11 02:21:06;;;;;;;;;;;;;;;16.82;65.89;101236.25;5014873;28;1564;-60
2021/03/11 02:23:35;;;;;;;;;;;;;;;16.83;66.01;101262.00;5007231;28;801;-60
2021/03/11 02:26:21;;;;;;;;;;;;;;;16.80;66.69;101258.66;5003390;28;1783;-61
2021/03/11 02:28:46;;;;;;;;;;;;;;;16.79;65.53;101243.56;5004816;28;1914;-60
2021/03/11 02:31:13;;;;;;;;;;;;;;;16.79;66.47;101265.81;5004754;28;1679;-58
2021/03/11 02:33:39;;;;;;;;;;;;;;;16.85;66.94;101261.88;5004478;28;1778;-61
2021/03/11 02:36:05;;;;;;;;;;;;;;;16.84;67.44;101266.34;5004424;28;1150;-61
2021/03/11 02:38:33;;;;;;;;;;;;;;;16.87;67.88;101262.59;5006593;28;867;-61
2021/03/11 02:41:00;;;;;;;;;;;;;;;16.89;68.03;101274.03;5003004;28;1492;-61
2021/03/11 02:43:26;;;;;;;;;;;;;;;16.86;67.80;101260.91;5003307;28;1494;-61
2021/03/11 02:45:52;;;;;;;;;;;;;;;16.91;66.86;101277.47;4996862;28;1720;-60
2021/03/11 02:48:18;;;;;;;;;;;;;;;16.94;68.26;101276.41;5005325;28;1886;-60
2021/03/11 02:50:43;;;;;;;;;;;;;;;16.95;68.20;101280.75;5012833;28;851;-61
2021/03/11 02:53:12;;;;;;;;;;;;;;;16.96;67.81;101294.03;5003278;28;1781;-66
2021/03/11 02:55:39;;;;;;;;;;;;;;;17.00;66.39;101298.19;5004351;28;1706;-61
2021/03/11 02:58:07;;;;;;;;;;;;;;;17.07;67.45;101311.97;5002954;28;1421;-60
2021/03/11 03:03:11;;;;;;;;;;;;;;;17.04;67.77;101315.69;5004223;28;1643;-42
2021/03/11 03:05:37;;;;;;;;;;;;;;;17.01;66.41;101296.34;5009670;28;1796;-42
2021/03/11 03:08:03;;;;;;;;;;;;;;;16.92;67.40;101297.88;5011393;28;1969;-42
2021/03/11 03:10:30;;;;;;;;;;;;;;;16.90;66.95;101313.16;5026474;22;3749;-60
2021/03/11 03:12:57;;;;;;;;;;;;;;;16.92;65.82;101315.72;5020913;28;1262;-60
2021/03/11 03:15:23;;;;;;;;;;;;;;;16.99;67.24;101316.97;5018708;28;1240;-60
2021/03/11 03:17:49;;;;;;;;;;;;;;;17.06;65.52;101319.13;5015941;28;1289;-60
2021/03/11 03:20:15;;;;;;;;;;;;;;;17.02;65.95;101314.97;5020913;28;1230;-60
2021/03/11 03:22:41;;;;;;;;;;;;;;;16.98;66.13;101316.13;5025526;28;1376;-61
2021/03/11 03:25:10;;;;;;;;;;;;;;;16.93;66.40;101315.63;5021429;28;1353;-60
2021/03/11 03:27:36;;;;;;;;;;;;;;;16.89;66.26;101317.66;5021258;28;1938;-61
2021/03/11 03:30:05;;;;;;;;;;;;;;;16.91;66.76;101314.88;5020600;28;1204;-59
2021/03/11 03:32:30;;;;;;;;;;;;;;;17.12;66.66;101319.66;5018983;28;1357;-61
2021/03/11 03:34:56;;;;;;;;;;;;;;;17.25;64.91;101302.63;5017805;28;1245;-61
2021/03/11 03:37:21;;;;;;;;;;;;;;;17.43;65.72;101303.09;5016764;28;1340;-58
2021/03/11 03:39:47;;;;;;;;;;;;;;;17.64;65.59;101324.72;5018282;28;1191;-61
2021/03/11 03:42:12;;;;;;;;;;;;;;;17.82;64.72;101343.91;5018139;28;1242;-61
2021/03/11 03:44:40;;;;;;;;;;;;;;;17.92;64.62;101332.56;5025529;28;1321;-62
2021/03/11 03:47:06;;;;;;;;;;;;;;;18.07;63.78;101356.38;5019140;28;1700;-62
2021/03/11 03:49:32;;;;;;;;;;;;;;;18.18;63.82;101346.66;5033130;28;1886;-62
2021/03/11 03:51:58;;;;;;;;;;;;;;;18.25;63.59;101340.72;5028748;28;1349;-62
2021/03/11 03:54:26;;;;;;;;;;;;;;;18.38;63.61;101355.84;5029233;28;1319;-62
2021/03/11 03:56:56;;;;;;;;;;;;;;;18.43;63.93;101341.16;5022442;28;1438;-62
2021/03/11 03:59:25;;;;;;;;;;;;;;;18.51;63.28;101353.13;5020672;28;1451;-61
2021/03/11 04:01:57;;;;;;;;;;;;;;;18.53;64.21;101364.56;5021319;28;1451;-61
2021/03/11 04:04:27;;;;;;;;;;;;;;;18.54;63.72;101361.75;5010951;28;1193;-61
2021/03/11 04:06:53;;;;;;;;;;;;;;;18.55;63.95;101363.47;4991366;28;1435;-62
2021/03/11 04:09:18;;;;;;;;;;;;;;;18.65;63.42;101363.59;5009252;28;1975;-61
2021/03/11 04:11:45;;;;;;;;;;;;;;;18.74;63.66;101359.34;5002406;28;1374;-62
2021/03/11 04:14:11;;;;;;;;;;;;;;;18.78;63.78;101374.22;5009457;28;1292;-62
2021/03/11 04:16:37;;;;;;;;;;;;;;;18.77;63.67;101377.88;5005020;28;1312;-62
2021/03/11 04:19:04;;;;;;;;;;;;;;;18.86;62.69;101366.47;5008559;28;1566;-62
2021/03/11 04:21:30;;;;;;;;;;;;;;;18.92;62.99;101376.72;5010470;28;1484;-62
2021/03/11 04:23:56;;;;;;;;;;;;;;;19.01;62.20;101369.78;5006752;28;1321;-62
2021/03/11 04:26:21;;;;;;;;;;;;;;;19.01;62.42;101381.34;5008861;28;1285;-62
2021/03/11 04:28:47;;;;;;;;;;;;;;;19.01;61.59;101392.06;5007704;28;1918;-62
2021/03/11 04:31:13;;;;;;;;;;;;;;;19.03;62.24;101378.56;5009143;28;1706;-62
2021/03/11 04:33:38;;;;;;;;;;;;;;;18.98;62.54;101378.06;5006875;28;1679;-62
2021/03/11 04:36:04;;;;;;;;;;;;;;;18.93;62.43;101383.78;5010706;28;1365;-62
2021/03/11 04:38:30;;;;;;;;;;;;;;;18.88;62.62;101380.63;5007212;28;1305;-62
2021/03/11 04:40:56;;;;;;;;;;;;;;;18.80;62.78;101383.03;4952192;28;1354;-61
2021/03/11 04:43:21;;;;;;;;;;;;;;;18.76;62.75;101382.41;4998902;28;1414;-64
2021/03/11 04:45:47;;;;;;;;;;;;;;;18.72;63.14;101390.78;5007564;28;1544;-62
2021/03/11 04:48:13;;;;;;;;;;;;;;;18.62;63.27;101388.81;5010790;28;1983;-62
2021/03/11 04:50:39;;;;;;;;;;;;;;;18.56;63.75;101389.28;5010743;28;1251;-62
2021/03/11 04:53:05;;;;;;;;;;;;;;;18.53;63.89;101396.69;5009997;28;1309;-62
2021/03/11 04:55:31;;;;;;;;;;;;;;;18.46;63.26;101405.22;5009375;28;1322;-62
2021/03/11 04:57:56;;;;;;;;;;;;;;;18.45;63.81;101399.97;5008971;28;1337;-62
2021/03/11 05:00:23;;;;;;;;;;;;;;;18.44;64.17;101411.63;5009957;28;1419;-62
2021/03/11 05:02:48;;;;;;;;;;;;;;;18.41;63.86;101412.72;5006563;28;1293;-62
2021/03/11 05:05:19;;;;;;;;;;;;;;;18.42;64.15;101411.75;5012631;28;1435;-62
2021/03/11 05:07:45;;;;;;;;;;;;;;;18.45;64.13;101421.38;5013632;28;1898;-62
2021/03/11 05:10:10;;;;;;;;;;;;;;;18.42;63.68;101411.75;5013349;28;1334;-62
2021/03/11 05:12:36;;;;;;;;;;;;;;;18.37;63.54;101416.59;5011438;28;1271;-62
2021/03/11 05:15:01;;;;;;;;;;;;;;;18.35;63.87;101426.56;5012270;28;1289;-62
2021/03/11 05:17:26;;;;;;;;;;;;;;;18.29;64.57;101419.00;5012521;28;1374;-62
2021/03/11 05:19:52;;;;;;;;;;;;;;;18.31;64.07;101426.94;5015588;28;1542;-62
2021/03/11 05:22:17;;;;;;;;;;;;;;;18.25;65.06;101421.06;5012923;28;1581;-62
2021/03/11 05:24:43;;;;;;;;;;;;;;;18.25;64.39;101431.75;5012556;28;1407;-62
2021/03/11 05:27:08;;;;;;;;;;;;;;;18.24;64.53;101443.44;5007010;28;1196;-62
2021/03/11 05:29:33;;;;;;;;;;;;;;;18.26;63.71;101441.50;5005779;28;1910;-62
2021/03/11 05:31:59;;;;;;;;;;;;;;;18.33;64.42;101455.28;5008995;28;1450;-62
2021/03/11 05:34:24;;;;;;;;;;;;;;;18.39;64.09;101462.00;5009537;28;1506;-60
2021/03/11 05:36:49;;;;;;;;;;;;;;;18.30;64.17;101468.88;5001978;28;1679;-62
2021/03/11 05:39:15;;;;;;;;;;;;;;;18.32;63.72;101474.13;5008625;28;1507;-61
2021/03/11 05:41:43;;;;;;;;;;;;;;;18.46;63.59;101479.31;5011472;28;1415;-63
2021/03/11 05:44:08;;;;;;;;;;;;;;;18.39;64.15;101470.03;5006286;28;1379;-65
2021/03/11 05:46:43;;;;;;;;;;;;;;;18.36;64.36;101486.31;5009397;28;1297;-63
2021/03/11 05:49:09;;;;;;;;;;;;;;;18.37;64.46;101499.63;5004591;28;1890;-60
2021/03/11 05:51:35;;;;;;;;;;;;;;;18.42;63.62;101478.72;5009863;28;1377;-66
2021/03/11 05:54:01;;;;;;;;;;;;;;;18.42;63.53;101496.59;5003797;28;1563;-66
2021/03/11 05:56:27;;;;;;;;;;;;;;;18.38;63.61;101492.41;4988148;28;1200;-63
2021/03/11 05:58:56;;;;;;;;;;;;;;;18.38;64.17;101505.81;5003178;28;829;-62
2021/03/11 06:01:23;;;;;;;;;;;;;;;18.37;64.13;101504.13;5008338;28;1558;-62
2021/03/11 06:03:48;;;;;;;;;;;;;;;18.40;64.01;101503.88;5010386;28;1472;-62
2021/03/11 06:06:15;;;;;;;;;;;;;;;18.39;63.60;101526.28;5007229;28;1403;-61
2021/03/11 06:08:40;;;;;;;;;;;;;;;18.44;63.37;101516.94;5010879;28;1886;-62
2021/03/11 06:11:07;;;;;;;;;;;;;;;18.43;63.65;101536.66;5010776;28;1459;-61
2021/03/11 06:13:32;;;;;;;;;;;;;;;18.39;63.92;101534.31;5011251;28;1377;-59
2021/03/11 06:16:00;;;;;;;;;;;;;;;18.46;63.72;101516.81;5003728;28;1343;-56
2021/03/11 06:18:27;;;;;;;;;;;;;;;18.50;64.28;101537.03;4999188;28;1394;-57
2021/03/11 06:20:52;;;;;;;;;;;;;;;18.48;63.88;101533.63;5004301;28;1017;-55
2021/03/11 06:23:17;;;;;;;;;;;;;;;18.50;64.19;101545.06;5007981;28;1142;-57
2021/03/11 06:25:43;;;;;;;;;;;;;;;18.53;64.14;101547.53;5004117;28;1373;-71
2021/03/11 06:28:08;;;;;;;;;;;;;;;18.57;64.57;101549.03;4989888;28;1910;-60
2021/03/11 06:30:35;;;;;;;;;;;;;;;18.59;64.02;101552.44;5003310;28;1152;-63
2021/03/11 06:33:01;;;;;;;;;;;;;;;18.64;64.07;101561.00;4987642;28;1322;-64
2021/03/11 06:35:26;;;;;;;;;;;;;;;18.62;63.96;101567.41;5007663;28;1195;-64
2021/03/11 06:37:52;;;;;;;;;;;;;;;18.73;63.74;101574.69;5005754;28;1342;-62
2021/03/11 06:40:17;;;;;;;;;;;;;;;18.62;64.01;101583.50;5010316;28;1765;-59
2021/03/11 06:42:43;;;;;;;;;;;;;;;18.62;64.07;101578.13;5011764;28;1532;-60
2021/03/11 06:45:24;;;;;;;;;;;;;;;18.67;63.94;101592.06;4984096;28;1239;-64
2021/03/11 06:47:50;;;;;;;;;;;;;;;18.60;63.93;101604.19;5011928;28;1867;-61
2021/03/11 06:50:16;;;;;;;;;;;;;;;18.63;64.34;101601.28;5013116;28;1293;-63
2021/03/11 06:53:02;;;;;;;;;;;;;;;18.66;64.32;101596.56;4994100;28;1301;-68
2021/03/11 06:55:27;;;;;;;;;;;;;;;18.57;64.38;101615.97;5012639;28;1437;-61
2021/03/11 06:57:53;;;;;;;;;;;;;;;18.55;64.29;101615.25;5012943;28;1494;-65
2021/03/11 07:00:18;;;;;;;;;;;;;;;18.60;64.48;101610.41;5009429;28;1240;-63
2021/03/11 07:02:50;;;;;;;;;;;;;;;18.65;64.39;101623.47;4989841;28;1467;-60
2021/03/11 07:05:17;;;;;;;;;;;;;;;18.62;64.82;101627.22;4984465;28;1365;-63
2021/03/11 07:07:43;;;;;;;;;;;;;;;18.64;65.22;101629.78;4993580;28;1894;-61
2021/03/11 07:10:21;;;;;;;;;;;;;;;18.65;65.41;101635.03;4986290;28;1420;-60
2021/03/11 07:12:53;;;;;;;;;;;;;;;18.65;65.46;101631.50;5005672;28;1188;-60
2021/03/11 07:15:20;;;;;;;;;;;;;;;18.66;65.79;101618.00;5009160;28;1420;-59
2021/03/11 07:17:45;;;;;;;;;;;;;;;18.67;66.01;101640.28;5010294;28;1338;-60
2021/03/11 07:20:15;;;;;;;;;;;;;;;18.66;66.34;101634.06;5010259;28;1149;-58
2021/03/11 07:22:41;;;;;;;;;;;;;;;18.77;65.82;101641.31;5007691;28;1439;-62
2021/03/11 07:25:24;;;;;;;;;;;;;;;18.72;66.14;101637.25;5011159;28;1407;-64
2021/03/11 07:27:49;;;;;;;;;;;;;;;18.79;65.42;101649.25;5006001;28;1969;-63
2021/03/11 07:30:15;;;;;;;;;;;;;;;18.82;65.04;101638.31;5013208;28;1512;-62
2021/03/11 07:32:41;;;;;;;;;;;;;;;18.82;65.14;101652.59;5008590;28;1458;-62
2021/03/11 07:35:06;;;;;;;;;;;;;;;18.92;64.52;101650.09;5009642;28;1505;-62
2021/03/11 07:37:33;;;;;;;;;;;;;;;18.99;64.66;101654.00;5009035;28;1504;-65
2021/03/11 07:39:59;;;;;;;;;;;;;;;18.93;64.79;101659.84;5006111;28;1450;-61
2021/03/11 07:42:25;;;;;;;;;;;;;;;18.98;64.58;101659.47;4990624;28;1656;-61
2021/03/11 07:44:51;;;;;;;;;;;;;;;18.96;64.64;101669.47;4987887;28;1539;-62
2021/03/11 07:47:18;;;;;;;;;;;;;;;18.97;64.64;101677.41;5012336;28;1505;-65
2021/03/11 07:49:43;;;;;;;;;;;;;;;18.98;64.72;101671.09;5014758;28;1886;-67
2021/03/11 07:52:09;;;;;;;;;;;;;;;18.99;64.63;101686.19;5013317;28;1451;-62
2021/03/11 07:54:34;;;;;;;;;;;;;;;19.00;64.63;101671.81;5011685;28;1523;-68
2021/03/11 07:57:00;;;;;;;;;;;;;;;18.99;64.63;101669.25;4994203;28;1377;-62
2021/03/11 07:59:26;;;;;;;;;;;;;;;19.01;64.82;101670.00;4978538;28;1540;-64
2021/03/11 08:01:53;;;;;;;;;;;;;;;19.02;64.66;101661.84;5013309;28;1424;-65
2021/03/11 08:04:19;;;;;;;;;;;;;;;19.01;64.58;101654.75;5010806;28;1188;-64
2021/03/11 08:06:45;;;;;;;;;;;;;;;19.01;64.86;101662.78;4994738;28;1265;-63
2021/03/11 08:09:11;;;;;;;;;;;;;;;19.03;64.67;101670.72;5000970;28;1961;-67
2021/03/11 08:11:40;;;;;;;;;;;;;;;19.04;64.12;101665.25;5007744;28;1538;-63
2021/03/11 08:14:18;;;;;;;;;;;;;;;19.03;63.94;101660.84;5007360;28;1404;-63
2021/03/11 08:16:43;;;;;;;;;;;;;;;19.02;63.69;101683.28;5005536;28;1377;-64
2021/03/11 08:19:09;;;;;;;;;;;;;;;19.00;63.95;101685.22;5005310;28;1449;-64
2021/03/11 08:21:34;;;;;;;;;;;;;;;19.08;63.74;101676.63;5007799;28;1670;-62
2021/03/11 08:24:00;;;;;;;;;;;;;;;19.11;63.92;101680.88;4990556;28;1606;-68
2021/03/11 08:26:45;;;;;;;;;;;;;;;19.08;64.19;101688.19;5005854;28;1407;-71
2021/03/11 08:29:21;;;;;;;;;;;;;;;19.07;64.22;101686.47;4995939;28;1895;-70
2021/03/11 08:31:47;;;;;;;;;;;;;;;19.07;64.27;101697.19;4988087;28;1331;-72
2021/03/11 08:34:31;;;;;;;;;;;;;;;19.07;64.20;101699.88;5009456;28;971;-63
2021/03/11 08:37:15;;;;;;;;;;;;;;;19.07;64.30;101702.56;5015121;28;1328;-61
2021/03/11 08:39:40;;;;;;;;;;;;;;;19.07;64.05;101715.97;5014839;28;1289;-63
2021/03/11 08:42:24;;;;;;;;;;;;;;;19.10;64.15;101711.34;5006999;28;1273;-62
2021/03/11 08:44:49;;;;;;;;;;;;;;;19.12;63.93;101710.28;5006810;28;1628;-65
2021/03/11 08:47:14;;;;;;;;;;;;;;;19.12;64.22;101709.41;5004827;28;1509;-65
2021/03/11 08:49:41;;;;;;;;;;;;;;;19.10;64.15;101732.78;5004033;28;1951;-62
2021/03/11 08:52:07;;;;;;;;;;;;;;;19.08;64.60;101733.78;5004068;28;1345;-68
2021/03/11 08:54:32;;;;;;;;;;;;;;;19.09;63.93;101739.97;4988535;28;1397;-65
2021/03/11 08:56:58;;;;;;;;;;;;;;;19.06;64.19;101732.19;4986777;28;1332;-64
2021/03/11 08:59:42;;;;;;;;;;;;;;;19.06;64.23;101733.03;4991163;28;1452;-62
2021/03/11 09:02:26;;;;;;;;;;;;;;;19.05;64.32;101735.81;4992775;28;1563;-65
2021/03/11 09:04:52;;;;;;;;;;;;;;;19.04;64.32;101734.97;5004099;28;1552;-64
2021/03/11 09:07:32;;;;;;;;;;;;;;;19.02;64.24;101736.91;5004495;28;1605;-64
2021/03/11 09:09:58;;;;;;;;;;;;;;;19.02;64.68;101742.25;5005277;28;1890;-63
2021/03/11 09:12:29;;;;;;;;;;;;;;;19.02;64.21;101753.00;4986995;28;1278;-65
2021/03/11 09:14:57;;;;;;;;;;;;;;;18.99;64.11;101753.19;4986767;28;1325;-61
2021/03/11 09:17:23;;;;;;;;;;;;;;;19.06;63.97;101765.19;5010479;28;1375;-70
2021/03/11 09:19:50;;;;;;;;;;;;;;;19.00;63.54;101765.66;5015610;28;1310;-62
2021/03/11 09:22:19;;;;;;;;;;;;;;;19.03;63.92;101752.00;4998853;28;1386;-61
2021/03/11 09:24:57;;;;;;;;;;;;;;;19.00;63.86;101762.97;5011775;28;1469;-70
2021/03/11 09:27:22;;;;;;;;;;;;;;;19.02;64.01;101768.19;5005200;28;1579;-62
2021/03/11 09:29:48;;;;;;;;;;;;;;;19.06;63.81;101777.75;5014120;28;1988;-68
2021/03/11 09:32:14;;;;;;;;;;;;;;;19.02;63.93;101761.03;4994894;28;1567;-68
2021/03/11 09:34:51;;;;;;;;;;;;;;;19.04;63.85;101777.84;4999574;28;1568;-67
2021/03/11 09:37:17;;;;;;;;;;;;;;;19.10;63.72;101771.19;5004963;28;1571;-65
2021/03/11 09:40:02;;;;;;;;;;;;;;;19.07;64.02;101782.13;5009836;28;1334;-66
2021/03/11 09:42:27;;;;;;;;;;;;;;;19.01;64.11;101772.72;5008459;28;1416;-67
2021/03/11 09:44:53;;;;;;;;;;;;;;;19.03;64.29;101780.66;4999221;28;1429;-67
2021/03/11 09:47:29;;;;;;;;;;;;;;;19.03;64.16;101786.00;5012431;28;1431;-64
2021/03/11 09:50:07;;;;;;;;;;;;;;;19.00;64.31;101791.56;4999232;28;1957;-68
2021/03/11 09:52:33;;;;;;;;;;;;;;;18.99;64.13;101790.72;5012945;28;1212;-62
2021/03/11 09:54:59;;;;;;;;;;;;;;;19.02;64.24;101784.28;5007274;28;1496;-63
2021/03/11 09:57:24;;;;;;;;;;;;;;;19.02;64.22;101787.84;5009650;28;1559;-64
2021/03/11 09:59:50;;;;;;;;;;;;;;;19.05;64.11;101778.72;5007993;28;1819;-62
2021/03/11 10:02:15;;;;;;;;;;;;;;;19.04;63.93;101785.91;4991956;28;1508;-60
2021/03/11 10:04:40;;;;;;;;;;;;;;;19.03;63.93;101792.22;5012747;28;1140;-61
2021/03/11 10:07:12;;;;;;;;;;;;;;;19.02;63.79;101801.25;5010188;28;1235;-60
2021/03/11 10:09:45;;;;;;;;;;;;;;;19.13;63.83;101799.59;4993720;28;1936;-65
2021/03/11 10:12:11;;;;;;;;;;;;;;;19.12;63.69;101809.47;4994219;28;1425;-63
2021/03/11 10:14:37;;;;;;;;;;;;;;;19.08;63.63;101814.19;5009313;28;1404;-63
2021/03/11 10:17:05;;;;;;;;;;;;;;;19.06;63.79;101799.19;5010993;28;1396;-63
2021/03/11 10:19:35;;;;;;;;;;;;;;;19.02;63.72;101801.25;4994071;28;1216;-59
2021/03/11 10:22:05;;;;;;;;;;;;;;;19.11;63.65;101802.38;5013063;28;1301;-67
2021/03/11 10:24:38;;;;;;;;;;;;;;;18.86;61.45;101811.31;5009682;28;1619;-71
2021/03/11 10:27:05;;;;;;;;;;;;;;;18.58;60.51;101807.91;5007866;28;1491;-59
2021/03/11 10:29:32;;;;;;;;;;;;;;;18.23;57.83;101807.66;4990942;28;1969;-59
2021/03/11 10:32:04;;;;;;;;;;;;;;;18.19;56.19;101793.63;4992534;28;1456;-67
2021/03/11 10:34:30;;;;;;;;;;;;;;;18.35;56.95;101803.28;5010051;28;1432;-67
2021/03/11 10:37:00;;;;;;;;;;;;;;;18.39;55.45;101800.28;5011038;28;1706;-68
2021/03/11 10:39:26;;;;;;;;;;;;;;;18.40;55.55;101809.16;5009133;28;1391;-67
2021/03/11 10:41:57;;;;;;;;;;;;;;;18.38;54.84;101822.69;5011707;28;1313;-68
2021/03/11 10:44:23;;;;;;;;;;;;;;;18.37;54.19;101812.06;4993378;28;1682;-67
2021/03/11 10:46:48;;;;;;;;;;;;;;;18.32;53.93;101809.69;5014875;28;1290;-60
2021/03/11 10:49:14;;;;;;;;;;;;;;;18.30;52.61;101808.94;5009680;28;1890;-59
2021/03/11 10:51:41;;;;;;;;;;;;;;;18.36;53.46;101810.34;5011066;28;1393;-59
2021/03/11 10:54:25;;;;;;;;;;;;;;;18.37;51.33;101810.25;4987361;28;1516;-59
2021/03/11 10:57:05;;;;;;;;;;;;;;;18.38;50.90;101803.06;5008838;28;1368;-59
2021/03/11 10:59:30;;;;;;;;;;;;;;;18.56;52.53;101815.19;5008777;28;1321;-60
2021/03/11 11:01:55;;;;;;;;;;;;;;;18.78;55.03;101792.22;4992581;28;1487;-68
2021/03/11 11:04:21;;;;;;;;;;;;;;;18.80;55.15;101801.03;5012855;28;1065;-60
2021/03/11 11:06:46;;;;;;;;;;;;;;;18.84;55.54;101802.53;4995649;28;1413;-60
2021/03/11 11:09:12;;;;;;;;;;;;;;;18.85;54.85;101799.75;5012005;28;1902;-60
2021/03/11 11:11:37;;;;;;;;;;;;;;;18.86;54.97;101796.13;5013174;28;1428;-68
2021/03/11 11:14:02;;;;;;;;;;;;;;;18.90;55.26;101794.09;5013752;28;1094;-68
2021/03/11 11:16:28;;;;;;;;;;;;;;;18.91;55.42;101798.47;5013272;28;1734;-60
2021/03/11 11:18:53;;;;;;;;;;;;;;;18.94;55.89;101803.63;5011904;28;1689;-60
2021/03/11 11:21:19;;;;;;;;;;;;;;;18.91;56.14;101803.81;4995130;28;1208;-69
2021/03/11 11:23:44;;;;;;;;;;;;;;;18.94;56.59;101794.69;5013195;28;1408;-60
2021/03/11 11:26:10;;;;;;;;;;;;;;;18.95;56.42;101799.94;5011926;28;1039;-68
2021/03/11 11:28:36;;;;;;;;;;;;;;;18.99;56.65;101816.69;4995099;28;1910;-60
2021/03/11 11:31:01;;;;;;;;;;;;;;;18.97;56.87;101808.75;4994497;28;1410;-60
2021/03/11 11:33:26;;;;;;;;;;;;;;;19.05;56.95;101803.69;5012997;28;1184;-68
2021/03/11 11:35:53;;;;;;;;;;;;;;;19.18;56.90;101816.19;5014236;28;1179;-69
2021/03/11 11:38:19;;;;;;;;;;;;;;;19.08;57.55;101803.47;5011679;28;1674;-60
2021/03/11 11:40:44;;;;;;;;;;;;;;;19.03;57.51;101802.94;4996326;28;1548;-60
2021/03/11 11:43:10;;;;;;;;;;;;;;;19.01;57.99;101807.56;5011522;28;1356;-60
2021/03/11 11:45:35;;;;;;;;;;;;;;;19.00;57.91;101797.81;5011980;28;1352;-60
2021/03/11 11:48:00;;;;;;;;;;;;;;;19.04;58.00;101803.81;4995599;28;1960;-66
2021/03/11 11:50:26;;;;;;;;;;;;;;;19.13;57.53;101794.25;5009663;28;1476;-63
2021/03/11 11:52:51;;;;;;;;;;;;;;;19.05;58.16;101801.00;5009715;28;1413;-66
2021/03/11 11:55:17;;;;;;;;;;;;;;;19.00;58.59;101802.28;5009860;28;1180;-64
2021/03/11 11:57:42;;;;;;;;;;;;;;;18.98;58.61;101796.19;4994635;28;1365;-63
2021/03/11 12:00:13;;;;;;;;;;;;;;;18.99;59.05;101797.91;4994310;28;1276;-65
2021/03/11 12:02:39;;;;;;;;;;;;;;;18.95;58.82;101799.09;5010331;28;1458;-64
2021/03/11 12:05:05;;;;;;;;;;;;;;;18.92;58.93;101785.91;5012511;28;1092;-64
2021/03/11 12:07:30;;;;;;;;;;;;;;;18.97;58.96;101781.94;4995032;28;1351;-67
2021/03/11 12:09:55;;;;;;;;;;;;;;;19.05;58.81;101787.59;4993046;28;1902;-59
2021/03/11 12:12:21;;;;;;;;;;;;;;;19.08;58.94;101794.59;5008820;28;1376;-59
2021/03/11 12:14:46;;;;;;;;;;;;;;;19.05;58.82;101776.88;5009435;28;1338;-60
2021/03/11 12:17:12;;;;;;;;;;;;;;;18.99;59.15;101785.38;4986260;28;1320;-60
2021/03/11 12:19:37;;;;;;;;;;;;;;;18.96;59.39;101790.97;4989338;28;1415;-68
2021/03/11 12:22:03;;;;;;;;;;;;;;;18.92;59.57;101784.09;4991593;28;1391;-68
2021/03/11 12:24:28;;;;;;;;;;;;;;;18.92;59.06;101800.19;4991845;28;1261;-68
2021/03/11 12:26:53;;;;;;;;;;;;;;;18.91;59.79;101790.41;5003652;28;1456;-68
2021/03/11 12:29:19;;;;;;;;;;;;;;;18.87;59.86;101791.59;5010530;28;1973;-68
2021/03/11 12:31:45;;;;;;;;;;;;;;;18.84;60.28;101792.69;5013047;28;1435;-68
2021/03/11 12:34:10;;;;;;;;;;;;;;;18.85;60.23;101799.75;5004832;28;1526;-68
2021/03/11 12:36:36;;;;;;;;;;;;;;;18.88;60.17;101798.69;5011680;28;1321;-67
2021/03/11 12:39:02;;;;;;;;;;;;;;;19.02;59.61;101805.72;4994648;28;1271;-58
2021/03/11 12:41:28;;;;;;;;;;;;;;;19.12;58.91;101796.06;5010635;28;1158;-64
2021/03/11 12:43:53;;;;;;;;;;;;;;;19.06;59.82;101796.53;5011170;28;1279;-66
2021/03/11 12:46:18;;;;;;;;;;;;;;;19.07;59.96;101798.22;5008568;28;1374;-61
2021/03/11 12:48:44;;;;;;;;;;;;;;;19.07;60.00;101799.06;5009098;28;1886;-65
2021/03/11 12:51:09;;;;;;;;;;;;;;;18.99;60.36;101804.13;5009952;28;1307;-65